首页
METAR-TAF:

METAR-TAF

机场 :

尼茨维尔, 南卡罗来纳州, 美国

纬度: 34-37-18N, 经度: 079-44-04W, 海拔: 45米

当前天气观测

该预报发布于16分钟前的19:35 UTC
风速8节,风向西南,在西北之间变化
温度 31°C
湿度 52%
气压 1022 hPa
能見度: 16.1公里
散云层高于5500英尺
散云层高于9500英尺

METAR: KBBP 231935Z AUTO 23008KT 174V304 10SM SCT055 SCT095 31/20 A3019 RMK AO2

时间: 15:51 (19:51 UTC)


TAF: 丢失

超过4000个机场的气象观测和天气预报(METAR&TAF报告)。

可查询的气象台以黄色和红色小点在地图上表示。

将鼠标移到小点上方,可查看气象台名称。

然后点击查看天气观测和预报。

如需切换地图:点击带黑十字的绿色按钮放大地图;点击带横线的绿色按钮缩小地图;或者点击绿色箭头查看邻近地区的地图。


METAR-TAF: